Time;durP1;ratioP1;P1;durP2;ratioP2;P2;SDS_P1;SDS_P2;PMS_P1;PMS_P2;Temp;Humidity;BMP_temperature;BMP_pressure;BME280_temperature;BME280_humidity;BME280_pressure;Samples;Min_cycle;Max_cycle;Signal;HPM_P1;HPM_P2
2022/02/27 00:02:25;;;;;;;9.57;5.23;;;;;;;-0.54;100.00;99575.47;5113112;28;20687;-68
2022/02/27 00:04:51;;;;;;;9.87;4.30;;;;;;;-0.60;100.00;99578.97;5113401;28;20553;-68
2022/02/27 00:07:18;;;;;;;8.63;4.10;;;;;;;-0.55;100.00;99576.34;5111367;28;20211;-68
2022/02/27 00:09:46;;;;;;;11.80;5.00;;;;;;;-0.63;100.00;99583.28;5113110;28;20243;-68
2022/02/27 00:12:12;;;;;;;10.33;4.77;;;;;;;-0.71;100.00;99579.81;5112972;28;20219;-68
2022/02/27 00:14:38;;;;;;;9.77;4.60;;;;;;;-0.83;100.00;99580.72;5113101;28;20214;-68
2022/02/27 00:17:07;;;;;;;8.87;3.90;;;;;;;-0.99;100.00;99583.34;5113219;28;20237;-68
2022/02/27 00:19:33;;;;;;;12.43;5.37;;;;;;;-0.90;100.00;99578.13;5113329;28;20290;-68
2022/02/27 00:22:00;;;;;;;8.43;4.43;;;;;;;-0.74;100.00;99583.28;5113057;28;20227;-68
2022/02/27 00:24:26;;;;;;;7.97;4.53;;;;;;;-0.78;100.00;99578.13;5113159;28;20208;-68
2022/02/27 00:26:54;;;;;;;12.67;4.77;;;;;;;-0.76;100.00;99581.56;5112898;28;20224;-68
2022/02/27 00:29:21;;;;;;;9.07;4.07;;;;;;;-0.67;100.00;99571.19;5113207;28;20210;-68
2022/02/27 00:31:48;;;;;;;11.93;5.00;;;;;;;-0.68;100.00;99574.66;5112856;28;20687;-68
2022/02/27 00:34:14;;;;;;;10.53;4.20;;;;;;;-0.69;100.00;99575.50;5111515;28;20237;-68
2022/02/27 00:36:41;;;;;;;9.23;4.30;;;;;;;-0.88;100.00;99581.56;5101674;28;20241;-68
2022/02/27 00:39:07;;;;;;;9.83;4.60;;;;;;;-1.05;100.00;99573.81;5113150;28;20211;-68
2022/02/27 00:41:38;;;;;;;8.47;4.87;;;;;;;-1.20;100.00;99583.31;5112861;28;20217;-68
2022/02/27 00:44:06;;;;;;;9.60;4.40;;;;;;;-1.11;100.00;99578.16;5113144;28;20215;-68
2022/02/27 00:46:33;;;;;;;13.50;4.37;;;;;;;-1.15;100.00;99586.78;5112981;28;20215;-68
2022/02/27 00:48:59;;;;;;;10.63;4.40;;;;;;;-1.19;100.00;99579.88;5112975;28;20212;-69
2022/02/27 00:51:26;;;;;;;11.00;4.67;;;;;;;-1.21;100.00;99586.78;5113014;28;20239;-68
2022/02/27 00:53:52;;;;;;;10.60;5.17;;;;;;;-1.18;100.00;99586.81;5112658;28;20214;-68
2022/02/27 00:56:19;;;;;;;10.37;4.97;;;;;;;-1.22;100.00;99585.06;5112670;28;20217;-68
2022/02/27 00:58:50;;;;;;;8.43;4.03;;;;;;;-1.25;100.00;99587.66;5116758;28;20218;-68
2022/02/27 01:01:18;;;;;;;8.10;4.37;;;;;;;-1.29;100.00;99575.56;5115718;28;20210;-68
2022/02/27 01:03:45;;;;;;;6.90;4.00;;;;;;;-1.37;100.00;99585.03;5116502;28;20215;-68
2022/02/27 01:06:12;;;;;;;14.70;4.97;;;;;;;-1.32;100.00;99584.19;5116580;28;20214;-68
2022/02/27 01:08:38;;;;;;;9.07;4.60;;;;;;;-1.31;100.00;99587.63;5116449;28;20578;-68
2022/02/27 01:11:05;;;;;;;9.63;4.30;;;;;;;-1.35;100.00;99578.16;5116294;28;20266;-68
2022/02/27 01:13:31;;;;;;;8.80;4.60;;;;;;;-1.27;100.00;99582.47;5116343;28;20237;-68
2022/02/27 01:15:58;;;;;;;6.67;4.13;;;;;;;-1.24;100.00;99571.25;5116291;28;20222;-68
2022/02/27 01:18:26;;;;;;;8.33;4.60;;;;;;;-1.29;100.00;99562.59;5116018;28;20677;-67
2022/02/27 01:20:53;;;;;;;9.60;4.77;;;;;;;-1.23;100.00;99565.19;5116294;28;20206;-68
2022/02/27 01:23:19;;;;;;;9.33;4.57;;;;;;;-1.21;100.00;99566.91;5116217;28;20217;-68
2022/02/27 01:25:46;;;;;;;9.80;4.83;;;;;;;-1.21;100.00;99561.72;5114419;28;20210;-68
2022/02/27 01:28:12;;;;;;;8.50;4.33;;;;;;;-1.17;100.00;99560.00;5116012;28;20564;-68
2022/02/27 01:30:39;;;;;;;11.27;4.67;;;;;;;-1.10;100.00;99559.13;5116163;28;20237;-68
2022/02/27 01:33:05;;;;;;;8.80;4.23;;;;;;;-1.13;100.00;99559.13;5116055;28;20206;-68
2022/02/27 01:35:33;;;;;;;11.63;4.90;;;;;;;-1.12;100.00;99550.50;5115768;28;20233;-68
2022/02/27 01:38:00;;;;;;;9.87;4.20;;;;;;;-1.03;100.00;99545.28;5115827;28;20241;-68
2022/02/27 01:40:27;;;;;;;7.87;4.33;;;;;;;-1.00;100.00;99543.53;5116008;28;20215;-70
2022/02/27 01:42:54;;;;;;;8.43;4.97;;;;;;;-0.96;100.00;99541.81;5115860;28;20578;-69
2022/02/27 01:45:20;;;;;;;6.77;4.30;;;;;;;-0.91;100.00;99545.25;5115768;28;20215;-70
2022/02/27 01:47:47;;;;;;;6.13;4.43;;;;;;;-0.91;100.00;99534.88;5115813;28;20210;-68
2022/02/27 01:50:13;;;;;;;7.60;4.10;;;;;;;-0.90;100.00;99541.78;5115801;28;20582;-67
2022/02/27 01:52:41;;;;;;;5.50;3.90;;;;;;;-0.93;100.00;99536.63;5113696;28;20826;-67
2022/02/27 01:55:10;;;;;;;10.83;4.13;;;;;;;-0.92;100.00;99533.16;5113739;28;20218;-67
2022/02/27 01:57:36;;;;;;;7.97;4.20;;;;;;;-1.09;100.00;99535.78;5115528;28;20235;-68
2022/02/27 02:00:06;;;;;;;8.37;4.10;;;;;;;-1.30;100.00;99534.94;5115326;28;20212;-67
2022/02/27 02:02:32;;;;;;;8.37;4.20;;;;;;;-1.39;100.00;99540.09;5115266;28;20316;-67
2022/02/27 02:04:59;;;;;;;9.57;4.30;;;;;;;-1.49;100.00;99546.13;5115443;28;20557;-67
2022/02/27 02:07:25;;;;;;;9.87;4.17;;;;;;;-1.47;100.00;99536.66;5115234;28;20241;-67
2022/02/27 02:09:53;;;;;;;6.93;4.03;;;;;;;-1.55;100.00;99541.81;5114186;28;20597;-68
2022/02/27 02:12:20;;;;;;;9.77;4.53;;;;;;;-1.59;100.00;99541.84;5115160;28;20210;-68
2022/02/27 02:14:46;;;;;;;9.43;3.70;;;;;;;-1.62;100.00;99542.69;5113058;28;20221;-68
2022/02/27 02:17:13;;;;;;;8.10;4.57;;;;;;;-1.62;100.00;99540.09;5113722;28;20597;-68
2022/02/27 02:19:40;;;;;;;8.77;4.60;;;;;;;-1.57;100.00;99542.69;5114619;28;20210;-68
2022/02/27 02:22:08;;;;;;;8.80;4.20;;;;;;;-1.55;100.00;99534.06;5115072;28;20571;-68
2022/02/27 02:24:35;;;;;;;10.80;4.03;;;;;;;-1.58;100.00;99533.19;5114949;28;20206;-68
2022/02/27 02:27:02;;;;;;;9.13;4.30;;;;;;;-1.54;100.00;99519.38;5114996;28;20207;-67
2022/02/27 02:29:28;;;;;;;10.33;4.60;;;;;;;-1.56;100.00;99518.50;5114964;28;20210;-67
2022/02/27 02:31:57;;;;;;;6.03;4.10;;;;;;;-1.57;100.00;99535.78;5114942;28;20210;-67
2022/02/27 02:34:25;;;;;;;6.57;4.50;;;;;;;-1.58;100.00;99518.50;5114596;28;20244;-67
2022/02/27 02:36:52;;;;;;;9.13;4.00;;;;;;;-1.66;100.00;99514.19;5114585;28;20219;-68
2022/02/27 02:39:21;;;;;;;11.03;4.40;;;;;;;-1.56;100.00;99515.91;5114762;28;20216;-68
2022/02/27 02:41:48;;;;;;;8.50;4.00;;;;;;;-1.61;100.00;99526.28;5114895;28;20567;-68
2022/02/27 02:44:15;;;;;;;9.67;3.93;;;;;;;-1.68;100.00;99524.53;5112916;28;20215;-67
2022/02/27 02:46:42;;;;;;;11.80;4.90;;;;;;;-1.63;100.00;99519.34;5114249;28;20214;-67
2022/02/27 02:49:11;;;;;;;10.23;4.90;;;;;;;-1.78;100.00;99522.78;5114235;28;20206;-67
2022/02/27 02:51:38;;;;;;;7.40;4.43;;;;;;;-1.78;100.00;99525.38;5114411;28;20221;-67
2022/02/27 02:54:05;;;;;;;12.50;5.10;;;;;;;-1.78;100.00;99515.00;5114036;28;20218;-67
2022/02/27 02:56:33;;;;;;;9.40;5.30;;;;;;;-1.74;100.00;99505.50;5114439;28;20210;-67
2022/02/27 02:59:00;;;;;;;8.30;4.70;;;;;;;-1.73;100.00;99512.44;5114381;28;20238;-67
2022/02/27 03:01:27;;;;;;;6.10;4.63;;;;;;;-1.80;100.00;99513.28;5114054;28;20215;-67
2022/02/27 03:03:54;;;;;;;11.10;5.37;;;;;;;-1.77;100.00;99508.13;5114179;28;20215;-67
2022/02/27 03:06:21;;;;;;;10.23;4.70;;;;;;;-1.75;100.00;99506.38;5114176;28;20214;-68
2022/02/27 03:08:49;;;;;;;4.90;4.13;;;;;;;-1.78;100.00;99508.97;5114154;28;20237;-68
2022/02/27 03:11:16;;;;;;;8.50;4.43;;;;;;;-1.81;100.00;99515.03;5101431;28;20708;-68
2022/02/27 03:13:44;;;;;;;5.67;4.50;;;;;;;-1.78;100.00;99508.97;5113921;28;20217;-68
2022/02/27 03:16:11;;;;;;;11.97;5.03;;;;;;;-1.83;100.00;99506.38;5113828;28;20301;-68
2022/02/27 03:18:38;;;;;;;8.70;4.90;;;;;;;-1.78;100.00;99509.81;5113727;28;20702;-68
2022/02/27 03:21:05;;;;;;;10.83;4.83;;;;;;;-1.82;100.00;99508.13;5113752;28;20267;-68
2022/02/27 03:23:32;;;;;;;7.67;4.70;;;;;;;-1.78;100.00;99507.25;5113479;28;20214;-68
2022/02/27 03:25:59;;;;;;;11.37;5.20;;;;;;;-1.80;100.00;99506.38;5113535;28;20214;-67
2022/02/27 03:28:26;;;;;;;5.93;4.17;;;;;;;-1.79;100.00;99502.06;5113683;28;20223;-68
2022/02/27 03:30:54;;;;;;;8.67;4.77;;;;;;;-1.78;100.00;99498.63;5113731;28;20212;-68
2022/02/27 03:33:21;;;;;;;7.60;4.07;;;;;;;-1.74;100.00;99497.75;5113453;28;20241;-68
2022/02/27 03:35:48;;;;;;;9.37;5.03;;;;;;;-1.75;100.00;99503.78;5111810;28;20209;-68
2022/02/27 03:38:14;;;;;;;9.80;4.27;;;;;;;-1.73;100.00;99504.69;5113587;28;20241;-68
2022/02/27 03:40:41;;;;;;;7.07;4.30;;;;;;;-1.73;100.00;99497.75;5113542;28;20215;-68
2022/02/27 03:43:08;;;;;;;7.77;4.53;;;;;;;-1.83;100.00;99495.16;5113597;28;20211;-68
2022/02/27 03:45:35;;;;;;;11.00;5.10;;;;;;;-1.84;100.00;99506.38;5113631;28;20215;-68
2022/02/27 03:48:03;;;;;;;8.93;4.40;;;;;;;-1.90;100.00;99508.97;5113525;28;20221;-68
2022/02/27 03:50:30;;;;;;;10.20;4.60;;;;;;;-1.83;100.00;99510.69;5113491;28;20206;-68
2022/02/27 03:52:56;;;;;;;7.13;4.50;;;;;;;-1.71;100.00;99508.97;5113132;28;20668;-68
2022/02/27 03:55:22;;;;;;;10.57;4.50;;;;;;;-1.73;100.00;99512.44;5113523;28;20217;-68
2022/02/27 03:57:49;;;;;;;8.63;4.50;;;;;;;-1.81;100.00;99519.34;5113453;28;20234;-68
2022/02/27 04:00:17;;;;;;;10.47;4.70;;;;;;;-1.84;100.00;99511.56;5113358;28;20225;-67
2022/02/27 04:02:46;;;;;;;11.87;5.00;;;;;;;-1.85;100.00;99513.28;5111419;28;20222;-68
2022/02/27 04:05:14;;;;;;;8.00;4.47;;;;;;;-1.83;100.00;99516.72;5113105;28;20210;-67
2022/02/27 04:07:40;;;;;;;10.57;4.67;;;;;;;-1.80;100.00;99526.25;5113452;28;20220;-68
2022/02/27 04:10:08;;;;;;;8.00;4.43;;;;;;;-1.76;100.00;99522.78;5113296;28;20291;-68
2022/02/27 04:12:34;;;;;;;11.43;4.93;;;;;;;-1.79;100.00;99520.22;5113233;28;20209;-68
2022/02/27 04:15:00;;;;;;;8.50;4.70;;;;;;;-1.70;100.00;99520.22;5113088;28;20221;-67
2022/02/27 04:17:27;;;;;;;8.03;4.47;;;;;;;-1.74;100.00;99521.94;5112837;28;20216;-68
2022/02/27 04:19:53;;;;;;;8.63;5.10;;;;;;;-1.70;100.00;99525.41;5113322;28;20218;-68
2022/02/27 04:22:21;;;;;;;7.07;4.53;;;;;;;-1.72;100.00;99524.53;5113218;28;20218;-68
2022/02/27 04:24:48;;;;;;;10.17;4.87;;;;;;;-1.66;100.00;99524.53;5112163;28;20212;-68
2022/02/27 04:27:14;;;;;;;7.70;4.83;;;;;;;-1.63;100.00;99529.72;5104605;28;20222;-69
2022/02/27 04:29:42;;;;;;;11.20;5.60;;;;;;;-1.63;100.00;99529.72;5112781;28;20211;-68
2022/02/27 04:32:08;;;;;;;8.90;4.97;;;;;;;-1.57;100.00;99528.00;5114693;28;20210;-68
2022/02/27 04:34:35;;;;;;;9.07;5.03;;;;;;;-1.58;100.00;99520.22;5117310;28;20580;-68
2022/02/27 04:37:02;;;;;;;9.30;4.33;;;;;;;-1.59;100.00;99526.28;5117284;28;20214;-67
2022/02/27 04:39:30;;;;;;;13.83;5.07;;;;;;;-1.52;100.00;99535.78;5116950;28;20248;-68
2022/02/27 04:41:57;;;;;;;11.57;4.90;;;;;;;-1.52;100.00;99522.81;5114535;28;20210;-68
2022/02/27 04:44:23;;;;;;;8.90;4.90;;;;;;;-1.48;100.00;99534.94;5117010;28;20236;-68
2022/02/27 04:46:50;;;;;;;11.30;6.60;;;;;;;-1.55;100.00;99523.69;5116616;28;20216;-68
2022/02/27 04:49:16;;;;;;;8.67;4.70;;;;;;;-1.56;100.00;99536.63;5116625;28;20210;-68
2022/02/27 04:51:43;;;;;;;11.07;4.90;;;;;;;-1.58;100.00;99517.63;5116529;28;20214;-68
2022/02/27 04:54:09;;;;;;;9.57;5.03;;;;;;;-1.55;100.00;99534.06;5114904;28;20601;-68
2022/02/27 04:56:37;;;;;;;7.60;4.63;;;;;;;-1.57;100.00;99529.72;5116449;28;20221;-68
2022/02/27 04:59:04;;;;;;;9.33;4.73;;;;;;;-1.56;100.00;99531.44;5116710;28;20242;-68
2022/02/27 05:01:30;;;;;;;9.80;4.17;;;;;;;-1.61;100.00;99534.03;5116426;28;20241;-67
2022/02/27 05:03:57;;;;;;;12.33;4.43;;;;;;;-1.66;100.00;99524.53;5116568;28;20220;-67
2022/02/27 05:06:23;;;;;;;8.67;4.43;;;;;;;-1.70;100.00;99530.59;5116569;28;20552;-68
2022/02/27 05:08:50;;;;;;;8.00;5.43;;;;;;;-1.66;100.00;99521.97;5116247;28;20207;-68
2022/02/27 05:11:16;;;;;;;10.30;4.93;;;;;;;-1.64;100.00;99522.81;5116566;28;20247;-68
2022/02/27 05:13:45;;;;;;;11.00;4.73;;;;;;;-1.77;100.00;99514.16;5116014;28;20222;-68
2022/02/27 05:16:12;;;;;;;9.87;4.77;;;;;;;-1.69;100.00;99527.13;5116308;28;20210;-68
2022/02/27 05:18:38;;;;;;;7.67;4.90;;;;;;;-1.69;100.00;99524.53;5116240;28;20247;-68
2022/02/27 05:21:05;;;;;;;7.70;4.53;;;;;;;-1.65;100.00;99521.94;5114674;28;20213;-68
2022/02/27 05:23:32;;;;;;;8.60;5.03;;;;;;;-1.79;100.00;99530.59;5116223;28;20222;-68
2022/02/27 05:25:58;;;;;;;10.73;4.27;;;;;;;-1.99;100.00;99525.34;5116145;28;20221;-68
2022/02/27 05:28:25;;;;;;;9.17;4.93;;;;;;;-2.09;100.00;99530.50;5116281;28;20214;-68
2022/02/27 05:30:54;;;;;;;9.77;5.20;;;;;;;-2.06;100.00;99533.09;5116169;28;20213;-67
2022/02/27 05:33:21;;;;;;;6.87;4.63;;;;;;;-2.00;100.00;99538.28;5116088;28;20582;-68
2022/02/27 05:35:47;;;;;;;10.57;5.10;;;;;;;-2.03;100.00;99530.53;5116065;28;20227;-68
2022/02/27 05:38:14;;;;;;;9.40;5.63;;;;;;;-2.11;100.00;99538.28;5115577;28;20226;-68
2022/02/27 05:40:40;;;;;;;10.47;5.00;;;;;;;-2.12;100.00;99543.44;5108745;28;20214;-68
2022/02/27 05:43:07;;;;;;;7.13;4.77;;;;;;;-2.12;100.00;99548.63;5115438;28;20226;-68
2022/02/27 05:45:34;;;;;;;8.73;5.30;;;;;;;-2.08;100.00;99555.56;5113745;28;20230;-68
2022/02/27 05:48:02;;;;;;;7.50;4.57;;;;;;;-2.06;100.00;99553.81;5115899;28;20210;-68
2022/02/27 05:50:29;;;;;;;10.30;5.20;;;;;;;-2.08;100.00;99547.78;5115731;28;20229;-68
2022/02/27 05:52:55;;;;;;;10.77;5.17;;;;;;;-2.12;100.00;99553.81;5115648;28;20240;-68
2022/02/27 05:55:22;;;;;;;10.83;4.93;;;;;;;-2.17;100.00;99548.59;5115300;28;20221;-68
2022/02/27 05:57:48;;;;;;;9.57;5.20;;;;;;;-2.18;100.00;99557.25;5115283;28;20221;-68
2022/02/27 06:00:16;;;;;;;8.03;5.50;;;;;;;-2.17;100.00;99556.38;5115086;28;20244;-68
2022/02/27 06:02:42;;;;;;;12.73;5.83;;;;;;;-2.12;100.00;99561.56;5115292;28;20206;-68
2022/02/27 06:05:10;;;;;;;10.00;5.93;;;;;;;-2.11;100.00;99558.13;5115188;28;20694;-68
2022/02/27 06:07:36;;;;;;;9.30;5.27;;;;;;;-2.12;100.00;99565.03;5115277;28;20210;-68
2022/02/27 06:10:04;;;;;;;13.23;5.47;;;;;;;-2.20;100.00;99571.03;5115390;28;20245;-68
2022/02/27 06:12:31;;;;;;;12.17;5.33;;;;;;;-2.31;100.00;99570.13;5113373;28;20214;-69
2022/02/27 06:14:57;;;;;;;13.47;6.00;;;;;;;-2.38;100.00;99568.38;5103416;28;20671;-69
2022/02/27 06:17:24;;;;;;;13.80;6.47;;;;;;;-2.41;100.00;99570.94;5115220;28;20207;-69
2022/02/27 06:19:50;;;;;;;10.87;6.00;;;;;;;-2.44;100.00;99570.94;5114960;28;20618;-68
2022/02/27 06:22:18;;;;;;;11.00;5.97;;;;;;;-2.41;100.00;99570.94;5115076;28;20210;-68
2022/02/27 06:24:44;;;;;;;10.50;5.97;;;;;;;-2.35;100.00;99576.13;5115047;28;20547;-68
2022/02/27 06:27:11;;;;;;;9.50;5.50;;;;;;;-2.28;100.00;99577.94;5115028;28;20206;-68
2022/02/27 06:29:37;;;;;;;12.17;5.90;;;;;;;-2.21;100.00;99584.84;5115001;28;20214;-68
2022/02/27 06:32:04;;;;;;;15.03;6.50;;;;;;;-2.22;100.00;99580.50;5112237;28;20214;-68
2022/02/27 06:34:31;;;;;;;10.77;6.37;;;;;;;-2.16;100.00;99594.34;5114617;28;20206;-68
2022/02/27 06:36:57;;;;;;;9.83;6.40;;;;;;;-2.01;100.00;99583.19;5114755;28;20222;-68
2022/02/27 06:39:25;;;;;;;11.87;5.97;;;;;;;-1.90;100.00;99587.53;5113150;28;20241;-68
2022/02/27 06:41:52;;;;;;;13.77;6.67;;;;;;;-1.90;100.00;99591.88;5114655;28;20210;-68
2022/02/27 06:44:18;;;;;;;11.70;5.63;;;;;;;-1.84;100.00;99591.91;5114630;28;20218;-68
2022/02/27 06:46:45;;;;;;;12.37;6.13;;;;;;;-1.89;100.00;99591.00;5114712;28;20302;-68
2022/02/27 06:49:11;;;;;;;11.40;6.40;;;;;;;-1.75;100.00;99594.50;5114202;28;20215;-67
2022/02/27 06:51:38;;;;;;;12.13;6.17;;;;;;;-1.65;100.00;99598.84;5114395;28;20218;-68
2022/02/27 06:54:04;;;;;;;13.07;6.93;;;;;;;-1.56;100.00;99593.66;5114104;28;20213;-68
2022/02/27 06:56:32;;;;;;;11.10;6.50;;;;;;;-1.55;100.00;99596.25;5108849;28;20210;-68
2022/02/27 06:58:58;;;;;;;11.47;5.97;;;;;;;-1.48;100.00;99599.75;5114264;28;20233;-68
2022/02/27 07:01:25;;;;;;;12.40;6.33;;;;;;;-1.40;100.00;99598.91;5114311;28;20214;-66
2022/02/27 07:03:51;;;;;;;9.80;6.57;;;;;;;-1.30;100.00;99598.03;5110322;28;20222;-68
2022/02/27 07:06:18;;;;;;;9.47;5.80;;;;;;;-1.26;100.00;99596.28;5114344;28;20215;-68
2022/02/27 07:08:44;;;;;;;10.80;6.53;;;;;;;-1.15;100.00;99594.56;5114102;28;20600;-68
2022/02/27 07:11:11;;;;;;;13.10;7.40;;;;;;;-1.19;100.00;99605.81;5113882;28;20249;-67
2022/02/27 07:13:41;;;;;;;12.97;6.53;;;;;;;-1.05;100.00;99606.69;5110829;28;20214;-68
2022/02/27 07:16:07;;;;;;;9.60;6.63;;;;;;;-0.93;100.00;99598.91;5111698;28;20219;-67
2022/02/27 07:18:33;;;;;;;10.57;6.23;;;;;;;-0.86;100.00;99596.28;5113632;28;20223;-68
2022/02/27 07:21:00;;;;;;;12.17;6.20;;;;;;;-0.78;100.00;99604.06;5110008;28;20226;-68
2022/02/27 07:23:26;;;;;;;12.60;7.07;;;;;;;-0.66;100.00;99607.53;5111709;28;20214;-68
2022/02/27 07:25:53;;;;;;;10.17;6.67;;;;;;;-0.64;100.00;99612.69;5113757;28;20219;-68
2022/02/27 07:28:19;;;;;;;11.30;5.97;;;;;;;-0.53;100.00;99614.44;5113868;28;20222;-68
2022/02/27 07:30:47;;;;;;;10.87;6.40;;;;;;;-0.49;100.00;99617.88;5112155;28;20241;-70
2022/02/27 07:33:14;;;;;;;11.10;7.00;;;;;;;-0.37;100.00;99623.03;5113777;28;20220;-66
2022/02/27 07:35:40;;;;;;;12.07;7.10;;;;;;;-0.36;100.00;99617.84;5102294;28;20255;-67
2022/02/27 07:38:07;;;;;;;10.20;6.30;;;;;;;-0.28;100.00;99626.47;5100789;28;20215;-67
2022/02/27 07:40:33;;;;;;;13.37;6.53;;;;;;;-0.28;100.00;99622.13;5101766;28;20237;-66
2022/02/27 07:43:00;;;;;;;10.30;6.97;;;;;;;-0.20;100.00;99621.28;5104715;28;20211;-67
2022/02/27 07:45:26;;;;;;;11.73;6.43;;;;;;;-0.16;100.00;99624.69;5103299;28;20210;-67
2022/02/27 07:47:54;;;;;;;12.83;5.93;;;;;;;-0.08;100.00;99624.66;5100822;28;20217;-67
2022/02/27 07:50:20;;;;;;;14.00;6.10;;;;;;;0.00;100.00;99621.19;5101256;28;20207;-67
2022/02/27 07:52:47;;;;;;;9.93;6.20;;;;;;;0.11;100.00;99628.94;5104622;28;20304;-67
2022/02/27 07:55:13;;;;;;;11.00;6.53;;;;;;;0.21;100.00;99625.44;5103295;28;20699;-67
2022/02/27 07:57:40;;;;;;;13.03;6.70;;;;;;;0.34;100.00;99630.56;5099181;28;20207;-67
2022/02/27 08:00:08;;;;;;;9.07;6.20;;;;;;;0.43;100.00;99640.91;5100708;28;20242;-66
2022/02/27 08:02:34;;;;;;;14.13;7.03;;;;;;;0.55;100.00;99632.19;5104140;28;20207;-67
2022/02/27 08:05:02;;;;;;;13.20;6.57;;;;;;;0.74;100.00;99641.59;5103524;28;20224;-67
2022/02/27 08:07:28;;;;;;;14.50;7.17;;;;;;;0.89;100.00;99642.38;5102780;28;20217;-67
2022/02/27 08:09:55;;;;;;;13.90;6.17;;;;;;;0.99;100.00;99638.81;5104549;28;20238;-67
2022/02/27 08:12:21;;;;;;;12.17;6.70;;;;;;;1.08;100.00;99643.97;5105933;28;20590;-67
2022/02/27 08:14:48;;;;;;;11.97;6.47;;;;;;;1.16;100.00;99639.53;5108397;28;20590;-67
2022/02/27 08:17:16;;;;;;;13.83;7.27;;;;;;;1.28;100.00;99636.84;5117584;28;20209;-67
2022/02/27 08:19:43;;;;;;;11.70;6.07;;;;;;;1.38;100.00;99645.44;5117453;28;20238;-67
2022/02/27 08:22:11;;;;;;;13.13;7.10;;;;;;;1.53;100.00;99640.09;5115830;28;20226;-66
2022/02/27 08:24:37;;;;;;;12.25;7.80;;;;;;;1.68;100.00;99638.19;5112732;28;20450;-69
2022/02/27 08:27:04;;;;;;;11.63;6.87;;;;;;;1.81;100.00;99645.00;5116139;28;20291;-68
2022/02/27 08:29:31;;;;;;;14.20;6.87;;;;;;;1.90;100.00;99642.28;5116044;28;20212;-68
2022/02/27 08:31:57;;;;;;;9.50;7.00;;;;;;;1.98;100.00;99640.47;5115071;28;20673;-68
2022/02/27 08:34:27;;;;;;;8.57;6.40;;;;;;;1.99;100.00;99642.19;5106498;28;20216;-68
2022/02/27 08:36:54;;;;;;;10.03;6.40;;;;;;;2.06;100.00;99643.84;5105349;28;20225;-68
2022/02/27 08:39:21;;;;;;;11.80;6.77;;;;;;;2.22;100.00;99640.19;5117098;28;20238;-68
2022/02/27 08:41:48;;;;;;;10.30;6.40;;;;;;;2.40;100.00;99634.72;5116118;28;20684;-68
2022/02/27 08:44:14;;;;;;;9.67;6.67;;;;;;;2.53;100.00;99636.31;5116908;28;20212;-68
2022/02/27 08:46:41;;;;;;;9.10;6.20;;;;;;;2.65;100.00;99637.88;5116811;28;20216;-67
2022/02/27 08:49:07;;;;;;;10.23;6.97;;;;;;;2.76;100.00;99639.44;5115142;28;20217;-67
2022/02/27 08:51:34;;;;;;;12.90;6.93;;;;;;;2.97;100.00;99641.75;5116474;28;20221;-67
2022/02/27 08:54:02;;;;;;;10.97;6.70;;;;;;;3.05;100.00;99639.88;5114736;28;20304;-67
2022/02/27 08:56:30;;;;;;;11.07;5.90;;;;;;;3.14;99.84;99639.75;5115499;28;20220;-68
2022/02/27 08:58:56;;;;;;;10.73;6.40;;;;;;;3.24;99.16;99643.91;5104958;28;20226;-67
2022/02/27 09:01:23;;;;;;;9.43;6.07;;;;;;;3.33;99.15;99640.28;5114965;28;20681;-67
2022/02/27 09:03:49;;;;;;;9.67;5.93;;;;;;;3.48;97.56;99637.44;5114990;28;20212;-67
2022/02/27 09:06:16;;;;;;;9.23;5.73;;;;;;;3.57;94.45;99627.66;5115036;28;20208;-68
2022/02/27 09:08:43;;;;;;;9.63;5.90;;;;;;;3.74;96.88;99636.06;5115257;28;20675;-68
2022/02/27 09:11:09;;;;;;;8.00;5.50;;;;;;;3.98;93.55;99632.13;5114663;28;20247;-68
2022/02/27 09:13:37;;;;;;;10.27;5.70;;;;;;;4.17;93.09;99623.88;5115175;28;20233;-68
2022/02/27 09:16:04;;;;;;;9.50;5.70;;;;;;;4.33;90.71;99627.91;5113020;28;20676;-69
2022/02/27 09:18:31;;;;;;;6.80;4.63;;;;;;;4.49;87.11;99624.09;5114492;28;20210;-70
2022/02/27 09:20:57;;;;;;;7.13;4.87;;;;;;;4.63;87.51;99623.75;5114967;28;20243;-69
2022/02/27 09:23:24;;;;;;;9.03;4.93;;;;;;;4.76;84.91;99622.63;5114632;28;20220;-68
2022/02/27 09:25:50;;;;;;;8.10;5.10;;;;;;;4.79;83.42;99612.94;5114575;28;20671;-68
2022/02/27 09:28:17;;;;;;;8.73;4.90;;;;;;;4.91;83.43;99612.66;5114731;28;20223;-66
2022/02/27 09:30:45;;;;;;;7.87;4.93;;;;;;;5.04;83.77;99615.81;5114844;28;20209;-66
2022/02/27 09:33:11;;;;;;;6.93;5.10;;;;;;;5.08;80.59;99613.09;5114707;28;20224;-67
2022/02/27 09:35:38;;;;;;;6.33;4.13;;;;;;;5.13;80.68;99608.59;5114691;28;20217;-67
2022/02/27 09:38:05;;;;;;;6.23;4.23;;;;;;;5.25;79.63;99613.56;5114692;28;20216;-67
2022/02/27 09:40:31;;;;;;;7.90;5.00;;;;;;;5.27;79.22;99608.28;5112434;28;20331;-67
2022/02/27 09:42:59;;;;;;;7.23;4.80;;;;;;;5.35;80.91;99607.19;5111191;28;20224;-67
2022/02/27 09:45:26;;;;;;;7.00;4.40;;;;;;;5.50;81.28;99614.66;5111005;28;20238;-68
2022/02/27 09:47:55;;;;;;;5.33;4.30;;;;;;;5.56;77.33;99611.88;5112463;28;20206;-67
2022/02/27 09:50:22;;;;;;;8.53;4.30;;;;;;;5.53;75.43;99609.34;5114104;28;20221;-67
2022/02/27 09:52:49;;;;;;;9.67;4.90;;;;;;;5.64;79.52;99612.56;5112383;28;20210;-67
2022/02/27 09:55:17;;;;;;;6.13;4.10;;;;;;;5.56;75.32;99609.25;5110403;28;20219;-67
2022/02/27 09:57:46;;;;;;;4.67;4.07;;;;;;;5.63;74.40;99604.72;5112455;28;20212;-67
2022/02/27 10:00:14;;;;;;;6.17;3.40;;;;;;;5.77;69.96;99606.09;5114319;28;20238;-66
2022/02/27 10:03:10;;;;;;;5.83;3.83;;;;;;;5.59;70.79;99609.19;5114280;28;20270;-67
2022/02/27 10:05:38;;;;;;;6.10;3.43;;;;;;;5.73;70.66;99591.31;5112945;28;20221;-67
2022/02/27 10:08:07;;;;;;;5.20;3.63;;;;;;;6.00;72.13;99603.72;5112268;28;20216;-67
2022/02/27 10:10:33;;;;;;;5.13;3.40;;;;;;;6.18;71.37;99607.59;5114097;28;20249;-67
2022/02/27 10:13:00;;;;;;;6.20;3.53;;;;;;;6.33;70.37;99599.25;5113939;28;20210;-68
2022/02/27 10:15:27;;;;;;;7.90;4.40;;;;;;;6.16;66.49;99607.63;5113674;28;20210;-68
2022/02/27 10:17:55;;;;;;;5.33;3.43;;;;;;;6.18;67.86;99604.97;5113946;28;20210;-67
2022/02/27 10:20:25;;;;;;;6.40;3.73;;;;;;;6.09;68.27;99606.09;5113551;28;20261;-67
2022/02/27 10:22:54;;;;;;;6.10;3.60;;;;;;;6.09;70.61;99605.22;5113770;28;20237;-67
2022/02/27 10:25:22;;;;;;;5.60;3.37;;;;;;;6.33;66.91;99600.13;5113663;28;20231;-67
2022/02/27 10:27:50;;;;;;;4.83;3.40;;;;;;;6.40;66.52;99596.44;5113446;28;20210;-67
2022/02/27 10:30:22;;;;;;;6.00;3.20;;;;;;;6.52;63.64;99590.81;5112738;28;20217;-67
2022/02/27 10:32:50;;;;;;;5.00;3.33;;;;;;;6.43;65.16;99596.34;5113602;28;20221;-67
2022/02/27 10:35:41;;;;;;;6.07;3.13;;;;;;;6.39;65.59;99581.56;5101662;28;20217;-67
2022/02/27 10:38:10;;;;;;;5.93;3.17;;;;;;;6.33;66.00;99591.38;5113301;28;20589;-67
2022/02/27 10:40:38;;;;;;;4.77;2.93;;;;;;;6.35;65.18;99577.31;5113040;28;20610;-67
2022/02/27 10:43:07;;;;;;;5.00;3.10;;;;;;;6.32;63.57;99582.66;5113606;28;20206;-67
2022/02/27 10:45:34;;;;;;;3.83;3.40;;;;;;;6.28;67.15;99574.94;5113276;28;20236;-67
2022/02/27 10:48:03;;;;;;;4.83;3.10;;;;;;;6.44;63.68;99577.06;5113188;28;20213;-67
2022/02/27 10:50:30;;;;;;;5.77;2.80;;;;;;;6.52;59.87;99580.31;5112999;28;20687;-67
2022/02/27 10:52:59;;;;;;;4.93;2.97;;;;;;;6.63;63.43;99572.97;5112911;28;20215;-67
2022/02/27 10:55:25;;;;;;;3.87;2.80;;;;;;;6.74;60.94;99568.25;5113176;28;20217;-67
2022/02/27 10:57:52;;;;;;;4.33;3.10;;;;;;;6.86;61.23;99567.84;5113052;28;20213;-67
2022/02/27 11:00:21;;;;;;;4.17;2.70;;;;;;;6.87;63.99;99566.94;5111230;28;20233;-67
2022/02/27 11:02:50;;;;;;;5.17;2.80;;;;;;;6.92;59.10;99557.16;5102488;28;20225;-67
2022/02/27 11:05:18;;;;;;;4.17;2.30;;;;;;;6.95;57.90;99564.91;5112636;28;20675;-67
2022/02/27 11:07:46;;;;;;;4.33;2.73;;;;;;;6.97;57.67;99562.25;5112823;28;20221;-67
2022/02/27 11:10:17;;;;;;;3.23;2.70;;;;;;;7.01;58.55;99559.47;5112907;28;20256;-67
2022/02/27 11:12:44;;;;;;;5.23;3.00;;;;;;;7.14;57.81;99559.94;5102964;28;20677;-67
2022/02/27 11:15:12;;;;;;;3.83;2.60;;;;;;;7.07;54.97;99543.50;5112736;28;20361;-67
2022/02/27 11:17:41;;;;;;;3.90;3.23;;;;;;;7.20;56.84;99550.06;5112434;28;20589;-67
2022/02/27 11:20:09;;;;;;;4.17;2.80;;;;;;;7.22;59.44;99537.75;5112322;28;20233;-68
2022/02/27 11:22:36;;;;;;;3.60;2.80;;;;;;;7.30;56.83;99541.81;5112487;28;20226;-67
2022/02/27 11:25:08;;;;;;;3.93;2.80;;;;;;;7.36;55.94;99538.13;5112528;28;20233;-67
2022/02/27 11:27:37;;;;;;;4.73;2.90;;;;;;;7.33;55.48;99540.84;5110960;28;20210;-67